Time;durP1;ratioP1;P1;durP2;ratioP2;P2;SDS_P1;SDS_P2;PMS_P1;PMS_P2;Temp;Humidity;BMP_temperature;BMP_pressure;BME280_temperature;BME280_humidity;BME280_pressure;Samples;Min_cycle;Max_cycle;Signal;HPM_P1;HPM_P2
2022/06/19 00:02:16;;;;;;;12.73;2.60;;;;;;;;;;5071444;28;20198;-66
2022/06/19 00:04:44;;;;;;;13.10;2.50;;;;;;;;;;5069600;28;20109;-68
2022/06/19 00:07:10;;;;;;;13.63;2.88;;;;;;;;;;5058654;28;20048;-67
2022/06/19 00:09:36;;;;;;;13.43;2.60;;;;;;;;;;5081444;28;20055;-67
2022/06/19 00:12:02;;;;;;;13.35;2.60;;;;;;;;;;5081552;28;20111;-65
2022/06/19 00:14:28;;;;;;;16.75;2.85;;;;;;;;;;5070264;28;20052;-68
2022/06/19 00:16:54;;;;;;;11.70;2.80;;;;;;;;;;5052764;28;20052;-68
2022/06/19 00:19:20;;;;;;;17.27;2.75;;;;;;;;;;5069816;28;20041;-67
2022/06/19 00:21:47;;;;;;;17.15;3.10;;;;;;;;;;5079943;28;20211;-68
2022/06/19 00:24:13;;;;;;;14.93;3.03;;;;;;;;;;5081861;28;20346;-68
2022/06/19 00:26:39;;;;;;;18.58;2.97;;;;;;;;;;5071594;28;20381;-66
2022/06/19 00:29:05;;;;;;;13.25;3.05;;;;;;;;;;5069440;28;20487;-68
2022/06/19 00:31:31;;;;;;;13.07;2.83;;;;;;;;;;5072797;28;20036;-67
2022/06/19 00:33:57;;;;;;;18.05;3.22;;;;;;;;;;5068415;28;20134;-67
2022/06/19 00:36:26;;;;;;;16.23;3.15;;;;;;;;;;5088111;28;20131;-69
2022/06/19 00:38:52;;;;;;;16.95;2.97;;;;;;;;;;5071279;28;20196;-67
2022/06/19 00:41:19;;;;;;;15.38;2.70;;;;;;;;;;5067902;28;20116;-67
2022/06/19 00:43:54;;;;;;;14.25;3.13;;;;;;;;;;5077973;28;20379;-67
2022/06/19 00:46:41;;;;;;;17.20;3.47;;;;;;;;;;5086928;28;20077;-66
2022/06/19 00:49:12;;;;;;;14.48;2.97;;;;;;;;;;5063639;28;20044;-67
2022/06/19 00:51:38;;;;;;;24.15;3.88;;;;;;;;;;5062549;28;20150;-67
2022/06/19 00:54:06;;;;;;;17.23;3.75;;;;;;;;;;5078282;28;20044;-66
2022/06/19 00:56:32;;;;;;;17.35;3.83;;;;;;;;;;5066564;28;20052;-66
2022/06/19 00:58:58;;;;;;;16.45;3.38;;;;;;;;;;5073510;28;20491;-67
2022/06/19 01:01:24;;;;;;;;;;;;;;;;;;5078972;28;20048;-67
2022/06/19 01:03:53;;;;;;;21.15;4.25;;;;;;;;;;5069214;28;19920;-66
2022/06/19 01:06:21;;;;;;;19.27;3.47;;;;;;;;;;5073515;28;20051;-68
2022/06/19 01:08:47;;;;;;;19.63;3.40;;;;;;;;;;5068292;28;20045;-66
2022/06/19 01:11:14;;;;;;;19.20;3.65;;;;;;;;;;5069300;28;20127;-66
2022/06/19 01:13:40;;;;;;;20.70;3.78;;;;;;;;;;5075101;28;20067;-66
2022/06/19 01:16:06;;;;;;;;;;;;;;;;;;5089744;28;20071;-66
2022/06/19 01:18:33;;;;;;;17.35;3.53;;;;;;;;;;5084276;28;19920;-67
2022/06/19 01:21:05;;;;;;;19.67;3.92;;;;;;;;;;5070869;28;20059;-67
2022/06/19 01:23:42;;;;;;;31.42;4.60;;;;;;;;;;5073816;28;20032;-68
2022/06/19 01:26:10;;;;;;;22.80;4.03;;;;;;;;;;5069128;28;20044;-68
2022/06/19 01:28:45;;;;;;;22.77;3.92;;;;;;;;;;5067348;28;20388;-67
2022/06/19 01:31:12;;;;;;;21.55;3.95;;;;;;;;;;5071109;28;20150;-66
2022/06/19 01:33:43;;;;;;;19.38;4.05;;;;;;;;;;5076616;28;20147;-67
2022/06/19 01:36:12;;;;;;;21.60;3.90;;;;;;;;;;5073051;28;20386;-67
2022/06/19 01:38:38;;;;;;;24.00;4.35;;;;;;;;;;5067539;28;20048;-68
2022/06/19 01:41:11;;;;;;;26.42;4.70;;;;;;;;;;5057871;28;20455;-65
2022/06/19 01:43:38;;;;;;;22.85;3.92;;;;;;;;;;5075242;28;20075;-65
2022/06/19 01:46:04;;;;;;;;;;;;;;;;;;5070149;28;20188;-65
2022/06/19 01:48:31;;;;;;;24.20;4.43;;;;;;;;;;5075865;28;19982;-65
2022/06/19 01:50:58;;;;;;;25.23;4.25;;;;;;;;;;5071507;28;20044;-63
2022/06/19 01:53:27;;;;;;;26.45;5.07;;;;;;;;;;5084147;28;20142;-65
2022/06/19 01:55:54;;;;;;;23.02;5.00;;;;;;;;;;5078135;28;20099;-66
2022/06/19 01:58:21;;;;;;;26.45;5.80;;;;;;;;;;5073763;28;20503;-65
2022/06/19 02:00:48;;;;;;;24.73;5.10;;;;;;;;;;5069319;28;20048;-66
2022/06/19 02:03:21;;;;;;;25.58;4.90;;;;;;;;;;5049037;28;20508;-64
2022/06/19 02:05:47;;;;;;;26.23;5.07;;;;;;;;;;5081638;28;20094;-64
2022/06/19 02:08:15;;;;;;;21.35;4.55;;;;;;;;;;5068087;28;20044;-64
2022/06/19 02:10:42;;;;;;;19.50;4.55;;;;;;;;;;5055175;28;20100;-66
2022/06/19 02:13:09;;;;;;;24.40;4.05;;;;;;;;;;5077590;28;20640;-65
2022/06/19 02:15:36;;;;;;;23.85;4.38;;;;;;;;;;5066522;28;20053;-65
2022/06/19 02:18:02;;;;;;;25.65;4.28;;;;;;;;;;5049371;28;20342;-64
2022/06/19 02:20:28;;;;;;;24.50;4.43;;;;;;;;;;5066982;28;20065;-65
2022/06/19 02:22:54;;;;;;;25.83;4.80;;;;;;;;;;5079539;28;20055;-65
2022/06/19 02:25:20;;;;;;;25.70;4.35;;;;;;;;;;5085622;28;20119;-64
2022/06/19 02:27:47;;;;;;;23.38;4.40;;;;;;;;;;5066906;28;20232;-65
2022/06/19 02:30:14;;;;;;;25.25;4.68;;;;;;;;;;5066942;28;20062;-65
2022/06/19 02:32:43;;;;;;;20.98;4.15;;;;;;;;;;5068529;28;20142;-65
2022/06/19 02:35:20;;;;;;;23.08;4.55;;;;;;;;;;5070566;28;20435;-66
2022/06/19 02:37:50;;;;;;;23.08;3.95;;;;;;;;;;5084913;28;20848;-67
2022/06/19 02:40:21;;;;;;;26.27;4.43;;;;;;;;;;5066052;28;20531;-66
2022/06/19 02:42:48;;;;;;;27.67;4.60;;;;;;;;;;5071908;28;20067;-66
2022/06/19 02:45:16;;;;;;;23.00;4.32;;;;;;;;;;5069749;28;20529;-66
2022/06/19 02:47:43;;;;;;;20.80;4.10;;;;;;;;;;5085914;28;20507;-67
2022/06/19 02:50:11;;;;;;;22.60;4.55;;;;;;;;;;5084904;28;20048;-67
2022/06/19 02:52:37;;;;;;;23.70;4.50;;;;;;;;;;5072109;28;20036;-66
2022/06/19 02:55:04;;;;;;;19.60;4.10;;;;;;;;;;5071682;28;20075;-66
2022/06/19 02:57:30;;;;;;;20.77;4.53;;;;;;;;;;5066792;28;20109;-67
2022/06/19 02:59:56;;;;;;;25.95;4.60;;;;;;;;;;5050103;28;20144;-69
2022/06/19 03:02:22;;;;;;;22.80;4.68;;;;;;;;;;5079222;28;20040;-65
2022/06/19 03:04:50;;;;;;;22.83;3.88;;;;;;;;;;5066266;28;20105;-66
2022/06/19 03:07:16;;;;;;;19.10;4.25;;;;;;;;;;5066654;28;20131;-65
2022/06/19 03:09:43;;;;;;;21.00;4.22;;;;;;;;;;5076259;28;20148;-67
2022/06/19 03:12:10;;;;;;;18.88;3.88;;;;;;;;;;5077375;28;20075;-67
2022/06/19 03:14:36;;;;;;;22.38;4.22;;;;;;;;;;5082570;28;20125;-66
2022/06/19 03:17:02;;;;;;;23.10;3.83;;;;;;;;;;5067491;28;20118;-65
2022/06/19 03:19:28;;;;;;;28.65;4.03;;;;;;;;;;5070657;28;20158;-65
2022/06/19 03:21:54;;;;;;;19.23;3.55;;;;;;;;;;5082932;28;20051;-65
2022/06/19 03:24:21;;;;;;;22.65;4.40;;;;;;;;;;5064094;28;20109;-65
2022/06/19 03:26:47;;;;;;;19.40;4.00;;;;;;;;;;5075891;28;20071;-65
2022/06/19 03:29:13;;;;;;;24.50;4.25;;;;;;;;;;5066141;28;20143;-65
2022/06/19 03:31:39;;;;;;;23.40;4.05;;;;;;;;;;5065953;28;20174;-65
2022/06/19 03:34:05;;;;;;;27.85;4.47;;;;;;;;;;5048179;28;20093;-64
2022/06/19 03:36:32;;;;;;;18.75;3.95;;;;;;;;;;5073862;28;20420;-64
2022/06/19 03:38:58;;;;;;;19.05;4.38;;;;;;;;;;5066843;28;20447;-65
2022/06/19 03:41:24;;;;;;;25.00;4.03;;;;;;;;;;5065113;28;20126;-64
2022/06/19 03:43:50;;;;;;;24.52;4.55;;;;;;;;;;5064041;28;22200;-63
2022/06/19 03:46:18;;;;;;;29.15;4.85;;;;;;;;;;5079181;28;20056;-65
2022/06/19 03:48:46;;;;;;;29.33;5.03;;;;;;;;;;5062179;28;20068;-68
2022/06/19 03:51:12;;;;;;;37.53;5.75;;;;;;;;;;5066304;28;20064;-81
2022/06/19 03:53:39;;;;;;;29.35;5.45;;;;;;;;;;5066132;28;20049;-72
2022/06/19 03:56:07;;;;;;;26.10;4.70;;;;;;;;;;5071051;28;20116;-74
2022/06/19 03:58:45;;;;;;;49.03;6.63;;;;;;;;;;5076940;28;20052;-86
2022/06/19 04:01:16;;;;;;;26.48;5.53;;;;;;;;;;5065402;28;20046;-76
2022/06/19 04:03:43;;;;;;;30.25;5.38;;;;;;;;;;5080598;28;20123;-75
2022/06/19 04:06:10;;;;;;;32.30;5.65;;;;;;;;;;5074846;28;20094;-77
2022/06/19 04:08:36;;;;;;;34.75;5.43;;;;;;;;;;5073596;28;20104;-80
2022/06/19 04:11:02;;;;;;;;;;;;;;;;;;5071665;28;20052;-83
2022/06/19 04:13:28;;;;;;;43.17;6.30;;;;;;;;;;5073676;28;19920;-85
2022/06/19 04:15:54;;;;;;;32.95;5.82;;;;;;;;;;5079202;28;20104;-84
2022/06/19 04:18:20;;;;;;;32.53;5.45;;;;;;;;;;5078663;28;20387;-82
2022/06/19 04:20:46;;;;;;;31.00;5.68;;;;;;;;;;5089655;28;20594;-85
2022/06/19 04:23:12;;;;;;;41.80;6.28;;;;;;;;;;5070740;28;20520;-83
2022/06/19 04:25:42;;;;;;;29.27;5.53;;;;;;;;;;5073233;28;20127;-74
2022/06/19 04:28:09;;;;;;;49.67;7.20;;;;;;;;;;5079864;28;20060;-74
2022/06/19 04:30:36;;;;;;;31.60;5.68;;;;;;;;;;5082128;28;20515;-74
2022/06/19 04:33:02;;;;;;;35.28;6.78;;;;;;;;;;5071313;28;20067;-69
2022/06/19 04:35:28;;;;;;;;;;;;;;;;;;5079554;28;20048;-69
2022/06/19 04:37:54;;;;;;;37.47;7.45;;;;;;;;;;5075510;28;19920;-72
2022/06/19 04:40:20;;;;;;;40.55;6.68;;;;;;;;;;5072187;28;20063;-68
2022/06/19 04:42:46;;;;;;;36.50;6.22;;;;;;;;;;5073330;28;20045;-73
2022/06/19 04:45:12;;;;;;;28.33;4.93;;;;;;;;;;5072979;28;20052;-74
2022/06/19 04:47:39;;;;;;;25.73;5.90;;;;;;;;;;5073511;28;20048;-75
2022/06/19 04:50:06;;;;;;;26.60;5.47;;;;;;;;;;5056994;28;20072;-73
2022/06/19 04:52:32;;;;;;;36.47;6.60;;;;;;;;;;5091762;28;20142;-73
2022/06/19 04:54:58;;;;;;;40.83;6.25;;;;;;;;;;5079098;28;20049;-72
2022/06/19 04:57:24;;;;;;;42.22;7.07;;;;;;;;;;5070735;28;20059;-71
2022/06/19 04:59:50;;;;;;;33.97;6.57;;;;;;;;;;5077486;28;20123;-72
2022/06/19 05:02:16;;;;;;;44.63;7.30;;;;;;;;;;5090128;28;20044;-74
2022/06/19 05:04:42;;;;;;;35.40;6.53;;;;;;;;;;5083661;28;20120;-73
2022/06/19 05:07:08;;;;;;;23.52;5.03;;;;;;;;;;5071869;28;20081;-68
2022/06/19 05:09:34;;;;;;;19.77;4.05;;;;;;;;;;5055238;28;20059;-74
2022/06/19 05:12:00;;;;;;;27.33;4.90;;;;;;;;;;5081932;28;20103;-72
2022/06/19 05:14:26;;;;;;;27.33;5.63;;;;;;;;;;5088449;28;20151;-72
2022/06/19 05:16:52;;;;;;;25.00;4.95;;;;;;;;;;5071772;28;20048;-71
2022/06/19 05:19:18;;;;;;;27.42;5.00;;;;;;;;;;5050766;28;20109;-71
2022/06/19 05:21:45;;;;;;;21.77;4.78;;;;;;;;;;5089073;28;20123;-70
2022/06/19 05:24:11;;;;;;;;;;;;;;;;;;5089880;28;20064;-70
2022/06/19 05:26:37;;;;;;;31.20;5.07;;;;;;;;;;5078366;28;19924;-70
2022/06/19 05:29:03;;;;;;;34.05;5.50;;;;;;;;;;5057859;28;20054;-71
2022/06/19 05:31:30;;;;;;;25.75;5.25;;;;;;;;;;5060754;28;20122;-69
2022/06/19 05:33:56;;;;;;;;;;;;;;;;;;5068880;28;20128;-70
2022/06/19 05:36:22;;;;;;;31.27;5.50;;;;;;;;;;5067786;28;19920;-71
2022/06/19 05:38:52;;;;;;;22.52;5.25;;;;;;;;;;5083238;28;20068;-72
2022/06/19 05:41:18;;;;;;;29.70;5.57;;;;;;;;;;5055210;28;20506;-74
2022/06/19 05:43:44;;;;;;;24.25;5.03;;;;;;;;;;5083129;28;20133;-73
2022/06/19 05:46:15;;;;;;;29.65;5.10;;;;;;;;;;5084173;28;20056;-73
2022/06/19 05:48:42;;;;;;;29.60;5.15;;;;;;;;;;5066232;28;20512;-71
2022/06/19 05:51:08;;;;;;;34.53;5.53;;;;;;;;;;5071405;28;20119;-71
2022/06/19 05:53:36;;;;;;;26.02;6.00;;;;;;;;;;5055140;28;20109;-72
2022/06/19 05:56:03;;;;;;;25.20;5.20;;;;;;;;;;5071348;28;20044;-72
2022/06/19 05:58:29;;;;;;;35.83;6.10;;;;;;;;;;5073156;28;20063;-72
2022/06/19 06:00:55;;;;;;;29.35;4.85;;;;;;;;;;5039497;28;20388;-72
2022/06/19 06:03:22;;;;;;;28.10;4.60;;;;;;;;;;5082879;28;20078;-70
2022/06/19 06:05:49;;;;;;;29.13;5.15;;;;;;;;;;5087068;28;20047;-76
2022/06/19 06:08:15;;;;;;;34.58;6.10;;;;;;;;;;5088894;28;20387;-72
2022/06/19 06:10:42;;;;;;;36.25;5.60;;;;;;;;;;5086286;28;20115;-72
2022/06/19 06:13:08;;;;;;;27.27;4.93;;;;;;;;;;5071441;28;20048;-72
2022/06/19 06:15:34;;;;;;;40.78;5.40;;;;;;;;;;5054838;28;20048;-71
2022/06/19 06:18:01;;;;;;;35.05;5.88;;;;;;;;;;5064260;28;20376;-71
2022/06/19 06:20:28;;;;;;;23.17;4.28;;;;;;;;;;5087158;28;20044;-77
2022/06/19 06:22:54;;;;;;;26.33;3.95;;;;;;;;;;5085112;28;20082;-70
2022/06/19 06:25:20;;;;;;;30.67;4.72;;;;;;;;;;5076406;28;20548;-71
2022/06/19 06:27:47;;;;;;;29.25;4.30;;;;;;;;;;5077619;28;20068;-70
2022/06/19 06:30:14;;;;;;;28.27;4.93;;;;;;;;;;5092011;28;20066;-70
2022/06/19 06:32:40;;;;;;;29.25;4.43;;;;;;;;;;5083121;28;20131;-74
2022/06/19 06:35:06;;;;;;;25.98;4.30;;;;;;;;;;5082458;28;20040;-72
2022/06/19 06:37:32;;;;;;;24.88;4.90;;;;;;;;;;5074084;28;20141;-71
2022/06/19 06:39:58;;;;;;;25.33;4.47;;;;;;;;;;5071282;28;20049;-71
2022/06/19 06:42:25;;;;;;;22.35;4.40;;;;;;;;;;5078879;28;20056;-73
2022/06/19 06:44:51;;;;;;;32.20;5.50;;;;;;;;;;5074176;28;20074;-71
2022/06/19 06:47:17;;;;;;;27.10;4.93;;;;;;;;;;5068343;28;20157;-72
2022/06/19 06:49:43;;;;;;;27.95;5.47;;;;;;;;;;5079086;28;20079;-71
2022/06/19 06:52:10;;;;;;;29.00;4.53;;;;;;;;;;5071522;28;20040;-72
2022/06/19 06:54:39;;;;;;;26.88;4.70;;;;;;;;;;5079774;28;20058;-72
2022/06/19 06:57:06;;;;;;;26.95;4.65;;;;;;;;;;5065092;28;20106;-70
2022/06/19 06:59:32;;;;;;;27.35;5.05;;;;;;;;;;5085518;28;20074;-71
2022/06/19 07:01:58;;;;;;;31.92;5.60;;;;;;;;;;5066540;28;20058;-74
2022/06/19 07:04:25;;;;;;;24.35;4.43;;;;;;;;;;5069251;28;20097;-72
2022/06/19 07:06:50;;;;;;;;;;;;;;;;;;5081260;28;20131;-72
2022/06/19 07:09:17;;;;;;;20.63;4.20;;;;;;;;;;5074596;28;19924;-72
2022/06/19 07:11:44;;;;;;;25.05;5.28;;;;;;;;;;5054454;28;20113;-71
2022/06/19 07:14:10;;;;;;;23.67;4.10;;;;;;;;;;5086880;28;20055;-71
2022/06/19 07:16:36;;;;;;;29.60;5.20;;;;;;;;;;5102274;22;20060;-66
2022/06/19 07:19:02;;;;;;;26.58;4.90;;;;;;;;;;5032107;28;20049;-67
2022/06/19 07:21:29;;;;;;;30.75;5.95;;;;;;;;;;5032377;28;20057;-67
2022/06/19 07:23:55;;;;;;;21.70;5.07;;;;;;;;;;5032207;28;20370;-67
2022/06/19 07:26:22;;;;;;;24.45;4.93;;;;;;;;;;5032003;28;20164;-68
2022/06/19 07:28:49;;;;;;;22.42;4.18;;;;;;;;;;5032071;28;20126;-68
2022/06/19 07:31:15;;;;;;;23.60;4.25;;;;;;;;;;5031125;28;20147;-67
2022/06/19 07:33:41;;;;;;;26.13;5.00;;;;;;;;;;5014784;28;20079;-67
2022/06/19 07:36:08;;;;;;;19.02;4.25;;;;;;;;;;5031649;28;20055;-66
2022/06/19 07:38:35;;;;;;;23.27;3.58;;;;;;;;;;5032269;28;20517;-66
2022/06/19 07:41:01;;;;;;;26.40;4.57;;;;;;;;;;5030331;28;20515;-66
2022/06/19 07:43:27;;;;;;;18.45;4.05;;;;;;;;;;5023000;28;20128;-65
2022/06/19 07:45:54;;;;;;;19.13;3.85;;;;;;;;;;5030756;28;20077;-64
2022/06/19 07:51:04;;;;;;;23.52;4.53;;;;;;;;;;5030289;28;20160;-64
2022/06/19 07:53:31;;;;;;;21.50;4.05;;;;;;;;;;5016365;28;20048;-64
2022/06/19 07:55:57;;;;;;;20.60;4.15;;;;;;;;;;5032380;28;20129;-64
2022/06/19 07:58:23;;;;;;;;;;;;;;;;;;5033412;28;20049;-64
2022/06/19 08:00:49;;;;;;;16.40;3.30;;;;;;;;;;5033485;28;20288;-64
2022/06/19 08:03:15;;;;;;;;;;;;;;;;;;5032762;28;20073;-64
2022/06/19 08:05:43;;;;;;;16.15;3.75;;;;;;;;;;5032152;28;19991;-63
2022/06/19 08:08:16;;;;;;;18.10;3.80;;;;;;;;;;5011038;28;20071;-63
2022/06/19 08:10:43;;;;;;;17.55;3.22;;;;;;;;;;5032530;28;20049;-61
2022/06/19 08:13:09;;;;;;;17.52;4.15;;;;;;;;;;5032767;28;20099;-61
2022/06/19 08:15:35;;;;;;;22.92;4.10;;;;;;;;;;5032353;28;20072;-62
2022/06/19 08:18:02;;;;;;;19.00;3.88;;;;;;;;;;5030160;28;20144;-63
2022/06/19 08:20:29;;;;;;;20.80;3.67;;;;;;;;;;5032916;28;20041;-63
2022/06/19 08:22:55;;;;;;;17.10;3.47;;;;;;;;;;5000091;28;20049;-63
2022/06/19 08:25:22;;;;;;;18.75;3.60;;;;;;;;;;5030985;28;20515;-62
2022/06/19 08:27:49;;;;;;;15.45;3.20;;;;;;;;;;5027822;28;20076;-63
2022/06/19 08:30:23;;;;;;;18.10;3.30;;;;;;;;;;5027940;28;20045;-62
2022/06/19 08:32:49;;;;;;;19.83;3.90;;;;;;;;;;5013035;28;20509;-63
2022/06/19 08:35:15;;;;;;;16.90;3.97;;;;;;;;;;5013917;28;20081;-63
2022/06/19 08:37:41;;;;;;;19.33;3.90;;;;;;;;;;5028983;28;20075;-62
2022/06/19 08:40:16;;;;;;;18.63;3.50;;;;;;;;;;5033706;28;20046;-62
2022/06/19 08:42:42;;;;;;;23.00;3.70;;;;;;;;;;5031036;28;20041;-63
2022/06/19 08:45:26;;;;;;;15.77;3.47;;;;;;;;;;5032495;28;20136;-63
2022/06/19 08:47:52;;;;;;;19.55;3.85;;;;;;;;;;5024345;28;20045;-62
2022/06/19 08:50:54;;;;;;;18.60;3.63;;;;;;;;;;5031334;28;20564;-62
2022/06/19 08:53:31;;;;;;;17.55;3.45;;;;;;;;;;4932766;29;20144;-62
2022/06/19 08:56:13;;;;;;;17.77;3.95;;;;;;;;;;5017905;28;20069;-62
2022/06/19 08:58:49;;;;;;;18.27;3.83;;;;;;;;;;5010144;28;20046;-62
2022/06/19 09:01:15;;;;;;;14.18;3.00;;;;;;;;;;5026775;28;20133;-62
2022/06/19 09:06:51;;;;;;;14.18;3.10;;;;;;;;;;5031388;28;20441;-62
2022/06/19 09:09:43;;;;;;;14.60;3.15;;;;;;;;;;5024994;28;20045;-62
2022/06/19 09:12:21;;;;;;;15.23;3.20;;;;;;;;;;4999240;28;20381;-61
2022/06/19 09:14:53;;;;;;;15.00;3.67;;;;;;;;;;5024363;28;20132;-63
2022/06/19 09:17:26;;;;;;;16.55;2.70;;;;;;;;;;5027926;28;20057;-62
2022/06/19 09:19:57;;;;;;;21.65;3.60;;;;;;;;;;5029621;28;20083;-63
2022/06/19 09:22:43;;;;;;;11.93;3.00;;;;;;;;;;5023007;28;20064;-63
2022/06/19 09:25:23;;;;;;;15.35;3.17;;;;;;;;;;5026906;28;20505;-62
2022/06/19 09:27:53;;;;;;;16.85;2.85;;;;;;;;;;5011127;28;20076;-63
2022/06/19 09:30:25;;;;;;;16.08;2.83;;;;;;;;;;5027027;28;20045;-63
2022/06/19 09:32:55;;;;;;;17.60;2.95;;;;;;;;;;5013294;28;20492;-63
2022/06/19 09:35:27;;;;;;;11.40;2.30;;;;;;;;;;5022703;28;20061;-63
2022/06/19 09:37:56;;;;;;;8.30;2.20;;;;;;;;;;5021594;28;20053;-63
2022/06/19 09:40:35;;;;;;;16.48;2.67;;;;;;;;;;5026382;28;20045;-62
2022/06/19 09:43:05;;;;;;;12.15;2.58;;;;;;;;;;5030085;28;20402;-63
2022/06/19 09:45:40;;;;;;;14.68;2.40;;;;;;;;;;5030464;28;20132;-63
2022/06/19 09:48:19;;;;;;;11.85;2.53;;;;;;;;;;5029059;28;20065;-63
2022/06/19 09:51:01;;;;;;;16.63;3.03;;;;;;;;;;5028418;28;20038;-64
2022/06/19 09:53:39;;;;;;;10.52;2.42;;;;;;;;;;5029119;28;20042;-62
2022/06/19 09:56:15;;;;;;;12.25;2.22;;;;;;;;;;5027039;28;20535;-63
2022/06/19 09:59:05;;;;;;;15.98;2.80;;;;;;;;;;5022265;28;20107;-63
2022/06/19 10:01:31;;;;;;;10.50;2.47;;;;;;;;;;5005919;28;20049;-62
2022/06/19 10:03:57;;;;;;;;;;;;;;;;;;5012366;28;20060;-62
2022/06/19 10:06:32;;;;;;;14.48;3.03;;;;;;;;;;5009504;28;19921;-64
2022/06/19 10:09:02;;;;;;;12.68;2.40;;;;;;;;;;5023546;28;20056;-62
2022/06/19 10:11:30;;;;;;;11.95;3.30;;;;;;;;;;5030235;28;20052;-63
2022/06/19 10:13:56;;;;;;;12.55;2.67;;;;;;;;;;5010401;28;20052;-64
2022/06/19 10:16:28;;;;;;;11.30;2.53;;;;;;;;;;5026921;28;20045;-63
2022/06/19 10:18:55;;;;;;;13.43;2.55;;;;;;;;;;5026454;28;20050;-64
2022/06/19 10:24:12;;;;;;;12.52;2.47;;;;;;;;;;5009307;28;20140;-64
2022/06/19 10:26:51;;;;;;;11.05;2.17;;;;;;;;;;5037084;28;20052;-66
2022/06/19 10:29:30;;;;;;;11.35;2.30;;;;;;;;;;5025716;28;20053;-63
2022/06/19 10:31:56;;;;;;;13.52;2.38;;;;;;;;;;5021084;28;20164;-62
2022/06/19 10:34:34;;;;;;;9.27;2.15;;;;;;;;;;5028637;28;20038;-62
2022/06/19 10:37:05;;;;;;;10.20;2.15;;;;;;;;;;5022599;28;20505;-64
2022/06/19 10:39:50;;;;;;;10.85;2.20;;;;;;;;;;5021822;28;20134;-63
2022/06/19 10:42:34;;;;;;;15.65;2.53;;;;;;;;;;5028591;28;20044;-65
2022/06/19 10:45:00;;;;;;;7.68;1.90;;;;;;;;;;5026644;28;20107;-64
2022/06/19 10:47:40;;;;;;;8.18;2.00;;;;;;;;;;5029197;28;20131;-63
2022/06/19 10:50:09;;;;;;;9.18;2.28;;;;;;;;;;5028755;28;20060;-65
2022/06/19 10:52:35;;;;;;;10.15;2.20;;;;;;;;;;5024974;28;20440;-64
2022/06/19 10:55:16;;;;;;;8.75;2.25;;;;;;;;;;5030157;28;20045;-64
2022/06/19 10:57:45;;;;;;;8.95;1.90;;;;;;;;;;5021370;28;20045;-64
2022/06/19 11:00:11;;;;;;;9.48;2.08;;;;;;;;;;5009085;28;20049;-64
2022/06/19 11:05:38;;;;;;;7.50;2.05;;;;;;;;;;5026919;28;20125;-65
2022/06/19 11:08:04;;;;;;;8.30;2.30;;;;;;;;;;5016344;28;20072;-65
2022/06/19 11:10:33;;;;;;;6.20;1.92;;;;;;;;;;5024218;28;20715;-64
2022/06/19 11:13:01;;;;;;;10.30;2.20;;;;;;;;;;5028948;28;20059;-64
2022/06/19 11:15:35;;;;;;;9.05;2.60;;;;;;;;;;5012238;28;20130;-64
2022/06/19 11:18:13;;;;;;;5.75;1.90;;;;;;;;;;5030208;28;20057;-64
2022/06/19 11:20:41;;;;;;;8.98;2.20;;;;;;;;;;5020576;28;20386;-65
2022/06/19 11:23:30;;;;;;;9.88;2.28;;;;;;;;;;5028334;28;20083;-65
2022/06/19 11:26:00;;;;;;;10.90;2.30;;;;;;;;;;4996585;28;20049;-65
2022/06/19 11:28:40;;;;;;;12.18;2.00;;;;;;;;;;5014632;28;20098;-66
2022/06/19 11:31:14;;;;;;;12.57;2.30;;;;;;;;;;5032579;28;20061;-66
2022/06/19 11:33:42;;;;;;;13.77;2.80;;;;;;;;;;5027213;28;20049;-65
2022/06/19 11:36:12;;;;;;;11.63;2.67;;;;;;;;;;5008138;28;20064;-62
2022/06/19 11:38:46;;;;;;;12.70;3.13;;;;;;;;;;5023589;28;20053;-65
2022/06/19 11:41:20;;;;;;;9.73;2.40;;;;;;;;;;5034753;28;20049;-64
2022/06/19 11:43:47;;;;;;;10.65;2.80;;;;;;;;;;5030802;28;20041;-65
2022/06/19 11:46:26;;;;;;;10.13;2.55;;;;;;;;;;5029169;28;20410;-65
2022/06/19 11:48:52;;;;;;;10.25;2.70;;;;;;;;;;5015515;28;20234;-65
2022/06/19 11:51:23;;;;;;;11.43;3.08;;;;;;;;;;5033483;28;20060;-64
2022/06/19 11:53:57;;;;;;;11.43;2.70;;;;;;;;;;5031941;28;20041;-64
2022/06/19 11:56:34;;;;;;;10.02;2.63;;;;;;;;;;5031284;28;20088;-65
2022/06/19 11:59:00;;;;;;;;;;;;;;;;;;5026710;28;20053;-65
2022/06/19 12:01:35;;;;;;;13.90;3.38;;;;;;;;;;5030429;28;20004;-65
2022/06/19 12:04:02;;;;;;;12.18;2.88;;;;;;;;;;5031180;28;20038;-65
2022/06/19 12:06:46;;;;;;;11.30;2.70;;;;;;;;;;5027827;28;20417;-63
2022/06/19 12:09:23;;;;;;;11.23;2.78;;;;;;;;;;5029210;28;20077;-65
2022/06/19 12:12:00;;;;;;;12.13;2.88;;;;;;;;;;5032528;28;20045;-64
2022/06/19 12:14:34;;;;;;;14.93;2.63;;;;;;;;;;5031101;28;20050;-65
2022/06/19 12:17:12;;;;;;;14.35;2.72;;;;;;;;;;5032618;28;20045;-64
2022/06/19 12:19:39;;;;;;;11.90;3.08;;;;;;;;;;5030178;28;20104;-65
2022/06/19 12:22:05;;;;;;;11.52;2.60;;;;;;;;;;5014477;28;20096;-65
2022/06/19 12:24:39;;;;;;;12.73;2.90;;;;;;;;;;5015107;28;20110;-66
2022/06/19 12:27:08;;;;;;;13.52;2.92;;;;;;;;;;5027328;28;20052;-65
2022/06/19 12:29:39;;;;;;;12.93;2.55;;;;;;;;;;5015514;28;20050;-65
2022/06/19 12:32:26;;;;;;;11.73;2.70;;;;;;;;;;5031932;28;20120;-64
2022/06/19 12:34:54;;;;;;;13.52;2.90;;;;;;;;;;5024883;28;20053;-65
2022/06/19 12:37:23;;;;;;;11.55;2.58;;;;;;;;;;5025040;28;20395;-63
2022/06/19 12:39:49;;;;;;;9.55;2.58;;;;;;;;;;5031525;28;20053;-65
2022/06/19 12:42:15;;;;;;;;;;;;;;;;;;5023756;28;20046;-65
2022/06/19 12:44:55;;;;;;;14.25;2.67;;;;;;;;;;5029194;28;20011;-65
2022/06/19 12:47:26;;;;;;;11.88;2.50;;;;;;;;;;5016894;28;20057;-66
2022/06/19 12:50:00;;;;;;;12.30;2.75;;;;;;;;;;5027043;28;20160;-65
2022/06/19 12:52:29;;;;;;;10.77;2.40;;;;;;;;;;5029225;28;20429;-65
2022/06/19 12:54:55;;;;;;;14.10;3.08;;;;;;;;;;5030942;28;20092;-65
2022/06/19 12:57:31;;;;;;;8.55;2.03;;;;;;;;;;5033191;28;20041;-65
2022/06/19 12:59:58;;;;;;;9.40;2.50;;;;;;;;;;5032993;28;20125;-65
2022/06/19 13:02:39;;;;;;;10.50;2.40;;;;;;;;;;5028720;28;20147;-66
2022/06/19 13:05:11;;;;;;;9.63;2.45;;;;;;;;;;5026750;28;20073;-67
2022/06/19 13:07:52;;;;;;;8.75;2.20;;;;;;;;;;5025456;28;20125;-70
2022/06/19 13:10:51;;;;;;;12.95;2.63;;;;;;;;;;5029227;28;20144;-71
2022/06/19 13:13:36;;;;;;;12.75;2.40;;;;;;;;;;4958860;28;20065;-63
2022/06/19 13:16:12;;;;;;;9.32;2.90;;;;;;;;;;5028380;28;20116;-63
2022/06/19 13:18:41;;;;;;;13.98;2.88;;;;;;;;;;5024194;28;20115;-65
2022/06/19 13:21:17;;;;;;;12.10;2.30;;;;;;;;;;5026669;28;20041;-69
2022/06/19 13:24:06;;;;;;;10.33;2.43;;;;;;;;;;5027286;28;20433;-64
2022/06/19 13:29:44;;;;;;;11.85;2.60;;;;;;;;;;5030418;28;20049;-64
2022/06/19 13:32:19;;;;;;;11.90;3.00;;;;;;;;;;5029067;28;20041;-66
2022/06/19 13:35:04;;;;;;;13.60;3.38;;;;;;;;;;5027805;28;20134;-65
2022/06/19 13:37:54;;;;;;;11.98;2.83;;;;;;;;;;5028344;28;20069;-69
2022/06/19 13:40:26;;;;;;;12.65;2.58;;;;;;;;;;5034349;28;20041;-70
2022/06/19 13:43:08;;;;;;;16.45;3.40;;;;;;;;;;5026431;28;20037;-70
2022/06/19 13:45:40;;;;;;;16.10;3.35;;;;;;;;;;5027955;28;20107;-64
2022/06/19 13:48:08;;;;;;;11.32;3.05;;;;;;;;;;5009711;28;20046;-66
2022/06/19 13:50:41;;;;;;;11.32;2.47;;;;;;;;;;5023251;28;20073;-66
2022/06/19 13:53:19;;;;;;;11.13;2.53;;;;;;;;;;5028062;28;20053;-64
2022/06/19 13:55:45;;;;;;;14.55;3.05;;;;;;;;;;5027627;28;20037;-64
2022/06/19 13:58:11;;;;;;;;;;;;;;;;;;5030927;28;20099;-67
2022/06/19 14:00:49;;;;;;;14.18;2.80;;;;;;;;;;5026760;28;21475;-66
2022/06/19 14:03:21;;;;;;;13.73;2.90;;;;;;;;;;5026896;28;20041;-64
2022/06/19 14:05:49;;;;;;;13.50;2.72;;;;;;;;;;5027099;28;20041;-65
2022/06/19 14:08:21;;;;;;;15.77;3.55;;;;;;;;;;4997490;28;20040;-66
2022/06/19 14:10:47;;;;;;;11.20;2.40;;;;;;;;;;5022922;28;20052;-64
2022/06/19 14:13:16;;;;;;;12.18;2.53;;;;;;;;;;5031479;28;20121;-66
2022/06/19 14:15:49;;;;;;;12.30;2.65;;;;;;;;;;5025370;28;20046;-65
2022/06/19 14:18:18;;;;;;;13.20;2.88;;;;;;;;;;5021962;28;20050;-66
2022/06/19 14:20:54;;;;;;;13.68;2.60;;;;;;;;;;5026258;28;20072;-64
2022/06/19 14:23:20;;;;;;;17.42;2.95;;;;;;;;;;5025079;28;20571;-65
2022/06/19 14:25:53;;;;;;;13.02;3.13;;;;;;;;;;5023581;28;20037;-65
2022/06/19 14:28:24;;;;;;;13.75;2.85;;;;;;;;;;5027379;28;20072;-66
2022/06/19 14:30:52;;;;;;;13.65;2.80;;;;;;;;;;5031063;28;20124;-64
2022/06/19 14:33:33;;;;;;;13.15;2.92;;;;;;;;;;5024717;28;20512;-65
2022/06/19 14:36:05;;;;;;;13.68;2.63;;;;;;;;;;5008488;28;20054;-65
2022/06/19 14:38:32;;;;;;;14.13;3.40;;;;;;;;;;5024011;28;20042;-65
2022/06/19 14:41:00;;;;;;;15.65;2.90;;;;;;;;;;5028110;28;20045;-64
2022/06/19 14:43:31;;;;;;;12.57;2.63;;;;;;;;;;5025913;28;20045;-65
2022/06/19 14:46:04;;;;;;;17.25;3.33;;;;;;;;;;5022307;28;20529;-66
2022/06/19 14:48:49;;;;;;;15.23;2.72;;;;;;;;;;5009640;28;20181;-65
2022/06/19 14:51:15;;;;;;;12.68;3.00;;;;;;;;;;5028414;28;21061;-66
2022/06/19 14:53:54;;;;;;;16.02;2.95;;;;;;;;;;5027960;28;20184;-66
2022/06/19 14:56:41;;;;;;;16.63;3.20;;;;;;;;;;5026359;28;20041;-68
2022/06/19 14:59:14;;;;;;;13.57;3.28;;;;;;;;;;5028180;28;20046;-67
2022/06/19 15:01:42;;;;;;;13.88;2.97;;;;;;;;;;5028810;28;20045;-68
2022/06/19 15:04:14;;;;;;;12.80;2.80;;;;;;;;;;5019980;28;20144;-66
2022/06/19 15:06:43;;;;;;;14.40;3.22;;;;;;;;;;5009543;28;20156;-66